createdAt,value
2023-03-16T00:00:52.248Z,98846.00
2023-03-16T00:03:21.743Z,98850.00
2023-03-16T00:05:49.948Z,98839.00
2023-03-16T00:08:17.551Z,98849.00
2023-03-16T00:10:46.957Z,98845.00
2023-03-16T00:13:17.471Z,98843.00
2023-03-16T00:16:04.291Z,98854.00
2023-03-16T00:18:31.195Z,98849.00
2023-03-16T00:20:59.741Z,98853.00
2023-03-16T00:23:29.361Z,98851.00
2023-03-16T00:26:00.133Z,98847.00
2023-03-16T00:28:31.010Z,98851.00
2023-03-16T00:30:59.100Z,98848.00
2023-03-16T00:33:26.630Z,98856.00
2023-03-16T00:36:01.915Z,98851.00
2023-03-16T00:38:31.185Z,98855.00
2023-03-16T00:40:58.760Z,98846.00
2023-03-16T00:43:27.330Z,98842.00
2023-03-16T00:46:06.485Z,98852.00
2023-03-16T00:48:38.003Z,98846.00
2023-03-16T00:51:07.371Z,98853.00
2023-03-16T00:53:34.598Z,98838.00
2023-03-16T00:56:04.243Z,98832.00
2023-03-16T00:58:35.765Z,98831.00
2023-03-16T01:01:06.854Z,98821.00
2023-03-16T01:03:34.104Z,98818.00
2023-03-16T01:06:10.155Z,98822.00
2023-03-16T01:08:37.704Z,98826.00
2023-03-16T01:11:06.132Z,98832.00
2023-03-16T01:13:32.974Z,98830.00
2023-03-16T01:16:00.398Z,98833.00
2023-03-16T01:18:28.544Z,98835.00
2023-03-16T01:20:55.010Z,98828.00
2023-03-16T01:23:22.996Z,98821.00
2023-03-16T01:25:54.089Z,98814.00
2023-03-16T01:28:25.536Z,98825.00
2023-03-16T01:30:57.481Z,98822.00
2023-03-16T01:33:26.682Z,98811.00
2023-03-16T01:36:08.043Z,98812.00
2023-03-16T01:38:43.536Z,98823.00
2023-03-16T01:41:10.696Z,98810.00
2023-03-16T01:43:39.721Z,98814.00
2023-03-16T01:46:06.315Z,98806.00
2023-03-16T01:48:45.107Z,98809.00
2023-03-16T01:51:21.027Z,98800.00
2023-03-16T01:53:52.976Z,98803.00
2023-03-16T01:56:25.644Z,98787.00
2023-03-16T01:58:58.666Z,98787.00
2023-03-16T02:01:29.186Z,98785.00
2023-03-16T02:04:07.950Z,98780.00
2023-03-16T02:06:37.232Z,98777.00
2023-03-16T02:09:05.323Z,98785.00
2023-03-16T02:11:32.369Z,98776.00
2023-03-16T02:14:10.301Z,98767.00
2023-03-16T02:16:37.027Z,98760.00
2023-03-16T02:19:05.013Z,98768.00
2023-03-16T02:21:54.429Z,98760.00
2023-03-16T02:24:21.738Z,98758.00
2023-03-16T02:27:01.816Z,98762.00
2023-03-16T02:30:01.082Z,98762.00
2023-03-16T02:32:33.434Z,98740.00
2023-03-16T02:35:02.461Z,98743.00
2023-03-16T02:37:29.421Z,98739.00
2023-03-16T02:39:55.901Z,98738.00
2023-03-16T02:42:26.363Z,98738.00
2023-03-16T02:44:59.071Z,98730.00
2023-03-16T02:47:43.304Z,98715.00
2023-03-16T02:50:12.700Z,98705.00
2023-03-16T02:52:39.953Z,98716.00
2023-03-16T02:55:07.685Z,98711.00
2023-03-16T02:57:34.641Z,98725.00
2023-03-16T03:00:16.859Z,98707.00
2023-03-16T03:02:46.070Z,98711.00
2023-03-16T03:05:13.070Z,98708.00
2023-03-16T03:07:39.612Z,98716.00
2023-03-16T03:10:08.152Z,98714.00
2023-03-16T03:12:34.940Z,98704.00
2023-03-16T03:15:05.297Z,98700.00
2023-03-16T03:17:39.038Z,98701.00
2023-03-16T03:20:13.931Z,98699.00
2023-03-16T03:22:40.751Z,98694.00
2023-03-16T03:25:09.056Z,98702.00
2023-03-16T03:27:35.921Z,98696.00
2023-03-16T03:30:06.335Z,98691.00
2023-03-16T03:32:32.910Z,98695.00
2023-03-16T03:34:59.489Z,98694.00
2023-03-16T03:37:26.066Z,98695.00
2023-03-16T03:39:53.466Z,98688.00
2023-03-16T03:42:20.382Z,98686.00
2023-03-16T03:44:46.987Z,98684.00
2023-03-16T03:47:13.538Z,98697.00
2023-03-16T03:49:40.175Z,98688.00
2023-03-16T03:52:06.703Z,98685.00
2023-03-16T03:54:34.103Z,98691.00
2023-03-16T03:57:08.649Z,98688.00
2023-03-16T03:59:40.733Z,98690.00
2023-03-16T04:02:25.995Z,98678.00
2023-03-16T04:04:54.472Z,98681.00
2023-03-16T04:07:23.123Z,98681.00
2023-03-16T04:09:53.462Z,98680.00
2023-03-16T04:12:26.255Z,98676.00
2023-03-16T04:14:53.269Z,98684.00
2023-03-16T04:17:22.256Z,98681.00
2023-03-16T04:19:50.311Z,98685.00
2023-03-16T04:22:17.738Z,98678.00
2023-03-16T04:24:46.019Z,98681.00
2023-03-16T04:27:13.601Z,98679.00
2023-03-16T04:29:40.190Z,98675.00
2023-03-16T04:32:07.959Z,98674.00
2023-03-16T04:34:35.180Z,98670.00
2023-03-16T04:37:04.527Z,98669.00
2023-03-16T04:39:33.368Z,98670.00
2023-03-16T04:42:01.591Z,98665.00
2023-03-16T04:44:28.148Z,98670.00
2023-03-16T04:46:55.022Z,98662.00
2023-03-16T04:49:23.413Z,98650.00
2023-03-16T04:51:50.200Z,98653.00
2023-03-16T04:54:19.293Z,98649.00
2023-03-16T04:56:45.779Z,98649.00
2023-03-16T04:59:28.323Z,98652.00
2023-03-16T05:02:04.730Z,98648.00
2023-03-16T05:04:31.940Z,98654.00
2023-03-16T05:06:58.500Z,98647.00
2023-03-16T05:09:29.588Z,98640.00
2023-03-16T05:11:56.106Z,98640.00
2023-03-16T05:14:22.709Z,98639.00
2023-03-16T05:17:14.796Z,98632.00
2023-03-16T05:19:42.590Z,98640.00
2023-03-16T05:22:10.081Z,98636.00
2023-03-16T05:24:38.805Z,98635.00
2023-03-16T05:27:05.512Z,98647.00
2023-03-16T05:29:32.152Z,98640.00
2023-03-16T05:31:59.521Z,98644.00
2023-03-16T05:34:28.944Z,98649.00
2023-03-16T05:36:55.440Z,98645.00
2023-03-16T05:39:23.566Z,98645.00
2023-03-16T05:41:50.520Z,98640.00
2023-03-16T05:44:24.550Z,98643.00
2023-03-16T05:47:01.730Z,98646.00
2023-03-16T05:49:31.276Z,98646.00
2023-03-16T05:51:59.691Z,98644.00
2023-03-16T05:54:27.017Z,98649.00
2023-03-16T05:56:54.571Z,98646.00
2023-03-16T05:59:21.265Z,98647.00
2023-03-16T06:01:53.075Z,98647.00
2023-03-16T06:04:21.792Z,98642.00
2023-03-16T06:06:48.678Z,98647.00
2023-03-16T06:09:20.553Z,98640.00
2023-03-16T06:11:47.096Z,98647.00
2023-03-16T06:14:15.983Z,98648.00
2023-03-16T06:16:42.912Z,98646.00
2023-03-16T06:19:10.591Z,98638.00
2023-03-16T06:21:37.178Z,98652.00
2023-03-16T06:24:09.233Z,98637.00
2023-03-16T06:26:36.551Z,98638.00
2023-03-16T06:29:05.791Z,98634.00
2023-03-16T06:31:34.814Z,98635.00
2023-03-16T06:34:02.568Z,98640.00
2023-03-16T06:36:30.689Z,98641.00
2023-03-16T06:39:00.022Z,98640.00
2023-03-16T06:41:32.157Z,98647.00
2023-03-16T06:43:58.679Z,98651.00
2023-03-16T06:46:25.251Z,98648.00
2023-03-16T06:48:52.183Z,98652.00
2023-03-16T06:51:19.318Z,98656.00
2023-03-16T06:53:47.011Z,98645.00
2023-03-16T06:56:18.835Z,98645.00
2023-03-16T06:58:48.610Z,98645.00
2023-03-16T07:01:16.179Z,98646.00
2023-03-16T07:03:42.715Z,98640.00
2023-03-16T07:06:29.442Z,98636.00
2023-03-16T07:08:55.971Z,98638.00
2023-03-16T07:11:23.610Z,98643.00
2023-03-16T07:13:51.487Z,98641.00
2023-03-16T07:16:19.350Z,98625.00
2023-03-16T07:18:46.076Z,98628.00
2023-03-16T07:21:15.366Z,98641.00
2023-03-16T07:23:45.236Z,98631.00
2023-03-16T07:26:14.312Z,98639.00
2023-03-16T07:28:50.129Z,98631.00
2023-03-16T07:31:17.190Z,98633.00
2023-03-16T07:33:44.938Z,98633.00
2023-03-16T07:36:16.854Z,98639.00
2023-03-16T07:38:50.603Z,98631.00
2023-03-16T07:41:17.803Z,98645.00
2023-03-16T07:43:45.459Z,98640.00
2023-03-16T07:46:15.190Z,98642.00
2023-03-16T07:48:43.194Z,98649.00
2023-03-16T07:51:13.444Z,98646.00
2023-03-16T07:53:41.539Z,98659.00
2023-03-16T07:59:36.829Z,98662.00
2023-03-16T08:02:04.022Z,98664.00
2023-03-16T08:04:31.471Z,98657.00
2023-03-16T08:07:01.083Z,98648.00
2023-03-16T08:09:41.333Z,98645.00
2023-03-16T08:12:11.396Z,98645.00
2023-03-16T08:14:38.756Z,98647.00
2023-03-16T08:17:14.900Z,98642.00
2023-03-16T08:19:43.032Z,98650.00
2023-03-16T08:22:10.678Z,98641.00
2023-03-16T08:24:40.997Z,98652.00
2023-03-16T08:27:09.468Z,98649.00
2023-03-16T08:29:38.370Z,98645.00
2023-03-16T08:32:07.260Z,98644.00
2023-03-16T08:34:39.984Z,98637.00
2023-03-16T08:37:07.525Z,98639.00
2023-03-16T08:39:35.617Z,98632.00
2023-03-16T08:42:08.283Z,98629.00
2023-03-16T08:44:41.452Z,98632.00
2023-03-16T08:47:08.189Z,98646.00
2023-03-16T08:49:35.568Z,98636.00
2023-03-16T08:52:06.468Z,98644.00
2023-03-16T08:54:33.580Z,98649.00
2023-03-16T08:57:00.411Z,98651.00
2023-03-16T08:59:30.101Z,98645.00
2023-03-16T09:01:57.445Z,98643.00
2023-03-16T09:04:23.958Z,98639.00
2023-03-16T09:07:07.926Z,98646.00
2023-03-16T09:09:36.213Z,98642.00
2023-03-16T09:12:04.189Z,98644.00
2023-03-16T09:14:30.858Z,98641.00
2023-03-16T09:16:57.436Z,98623.00
2023-03-16T09:19:24.964Z,98624.00
2023-03-16T09:21:51.428Z,98632.00
2023-03-16T09:24:17.874Z,98626.00
2023-03-16T09:26:44.377Z,98634.00
2023-03-16T09:29:11.959Z,98615.00
2023-03-16T09:31:38.565Z,98618.00
2023-03-16T09:34:05.160Z,98629.00
2023-03-16T09:36:31.584Z,98621.00
2023-03-16T09:38:58.063Z,98627.00
2023-03-16T09:41:39.034Z,98619.00
2023-03-16T09:44:34.353Z,98618.00
2023-03-16T09:47:03.618Z,98620.00
2023-03-16T09:49:36.866Z,98621.00
2023-03-16T09:52:18.381Z,98617.00
2023-03-16T09:54:59.671Z,98616.00
2023-03-16T09:57:32.251Z,98615.00
2023-03-16T10:00:27.628Z,98616.00
2023-03-16T10:03:09.722Z,98624.00
2023-03-16T10:05:38.610Z,98619.00
2023-03-16T10:08:22.191Z,98625.00
2023-03-16T10:11:10.301Z,98635.00
2023-03-16T10:13:46.613Z,98637.00
2023-03-16T10:16:32.655Z,98626.00
2023-03-16T10:19:11.889Z,98626.00
2023-03-16T10:21:41.054Z,98633.00
2023-03-16T10:24:27.094Z,98616.00
2023-03-16T10:27:00.172Z,98617.00
2023-03-16T10:29:33.998Z,98610.00
2023-03-16T10:32:11.603Z,98614.00
2023-03-16T10:34:38.301Z,98630.00
2023-03-16T10:37:05.946Z,98617.00
2023-03-16T10:39:36.838Z,98619.00
2023-03-16T10:42:03.331Z,98622.00
2023-03-16T10:44:30.024Z,98614.00
2023-03-16T10:47:05.219Z,98622.00
2023-03-16T10:49:44.235Z,98613.00
2023-03-16T10:52:22.900Z,98610.00
2023-03-16T10:54:54.686Z,98605.00
2023-03-16T10:57:30.769Z,98605.00
2023-03-16T11:00:09.759Z,98607.00
2023-03-16T11:02:36.272Z,98602.00
2023-03-16T11:05:28.429Z,98597.00
2023-03-16T11:07:54.981Z,98589.00
2023-03-16T11:10:36.194Z,98593.00
2023-03-16T11:13:10.124Z,98596.00
2023-03-16T11:15:40.874Z,98595.00
2023-03-16T11:18:29.488Z,98588.00
2023-03-16T11:20:58.082Z,98587.00
2023-03-16T11:23:34.337Z,98593.00
2023-03-16T11:26:05.828Z,98588.00
2023-03-16T11:28:38.663Z,98594.00
2023-03-16T11:31:27.479Z,98580.00
2023-03-16T11:33:55.545Z,98572.00
2023-03-16T11:36:27.923Z,98580.00
2023-03-16T11:39:12.884Z,98575.00
2023-03-16T11:42:10.013Z,98574.00
2023-03-16T11:44:38.552Z,98569.00
2023-03-16T11:47:23.742Z,98564.00
2023-03-16T11:50:28.479Z,98560.00
2023-03-16T11:52:57.883Z,98554.00
2023-03-16T11:55:33.277Z,98555.00
2023-03-16T11:57:59.732Z,98561.00
2023-03-16T12:00:47.751Z,98560.00
2023-03-16T12:03:42.166Z,98551.00
2023-03-16T12:06:22.110Z,98547.00
2023-03-16T12:08:58.804Z,98545.00
2023-03-16T12:11:42.346Z,98544.00
2023-03-16T12:14:30.220Z,98546.00
2023-03-16T12:17:27.664Z,98552.00
2023-03-16T12:19:57.152Z,98547.00
2023-03-16T12:22:29.754Z,98544.00
2023-03-16T12:24:56.352Z,98534.00
2023-03-16T12:27:26.740Z,98538.00
2023-03-16T12:30:03.961Z,98524.00
2023-03-16T12:32:42.165Z,98519.00
2023-03-16T12:35:42.635Z,98513.00
2023-03-16T12:38:22.440Z,98504.00
2023-03-16T12:41:07.423Z,98498.00
2023-03-16T12:44:01.655Z,98495.00
2023-03-16T12:46:38.586Z,98487.00
2023-03-16T12:49:07.605Z,98485.00
2023-03-16T12:51:38.792Z,98490.00
2023-03-16T12:54:06.184Z,98484.00
2023-03-16T12:56:36.700Z,98488.00
2023-03-16T12:59:05.866Z,98481.00
2023-03-16T13:01:59.182Z,98477.00
2023-03-16T13:04:40.492Z,98480.00
2023-03-16T13:07:31.504Z,98480.00
2023-03-16T13:10:02.669Z,98483.00
2023-03-16T13:12:32.842Z,98484.00
2023-03-16T13:14:59.545Z,98477.00
2023-03-16T13:17:32.155Z,98466.00
2023-03-16T13:19:58.772Z,98468.00
2023-03-16T13:22:31.456Z,98457.00
2023-03-16T13:25:18.688Z,98453.00
2023-03-16T13:27:52.827Z,98458.00
2023-03-16T13:30:23.406Z,98458.00
2023-03-16T13:33:00.417Z,98458.00
2023-03-16T13:35:29.218Z,98451.00
2023-03-16T13:38:05.649Z,98456.00
2023-03-16T13:40:32.940Z,98453.00
2023-03-16T13:42:59.491Z,98439.00
2023-03-16T13:45:33.313Z,98432.00
2023-03-16T13:48:02.131Z,98445.00
2023-03-16T13:50:33.058Z,98449.00
2023-03-16T13:53:04.407Z,98443.00
2023-03-16T13:55:33.780Z,98443.00
2023-03-16T13:58:01.794Z,98448.00
2023-03-16T14:00:37.016Z,98452.00
2023-03-16T14:03:14.542Z,98439.00
2023-03-16T14:05:41.462Z,98435.00
2023-03-16T14:08:21.771Z,98439.00
2023-03-16T14:10:49.152Z,98439.00
2023-03-16T14:13:27.857Z,98439.00
2023-03-16T14:15:57.781Z,98441.00
2023-03-16T14:18:32.051Z,98433.00
2023-03-16T14:20:58.710Z,98439.00
2023-03-16T14:23:34.081Z,98451.00
2023-03-16T14:26:12.612Z,98447.00
2023-03-16T14:28:39.936Z,98428.00
2023-03-16T14:31:13.294Z,98430.00
2023-03-16T14:33:42.717Z,98439.00
2023-03-16T14:36:16.374Z,98434.00
2023-03-16T14:38:54.261Z,98438.00
2023-03-16T14:41:21.344Z,98443.00
2023-03-16T14:43:54.419Z,98428.00
2023-03-16T14:46:28.443Z,98433.00
2023-03-16T14:49:03.643Z,98429.00
2023-03-16T14:51:31.909Z,98437.00
2023-03-16T14:53:58.466Z,98435.00
2023-03-16T14:56:34.151Z,98435.00
2023-03-16T14:59:01.079Z,98416.00
2023-03-16T15:01:27.617Z,98415.00
2023-03-16T15:03:54.481Z,98422.00
2023-03-16T15:06:21.483Z,98425.00
2023-03-16T15:08:48.757Z,98424.00
2023-03-16T15:11:21.210Z,98422.00
2023-03-16T15:13:51.350Z,98418.00
2023-03-16T15:16:20.057Z,98417.00
2023-03-16T15:18:46.582Z,98409.00
2023-03-16T15:21:20.592Z,98409.00
2023-03-16T15:23:47.843Z,98407.00
2023-03-16T15:26:16.493Z,98402.00
2023-03-16T15:28:43.022Z,98398.00
2023-03-16T15:31:14.291Z,98404.00
2023-03-16T15:33:41.496Z,98394.00
2023-03-16T15:36:22.170Z,98383.00
2023-03-16T15:38:52.912Z,98384.00
2023-03-16T15:41:19.555Z,98390.00
2023-03-16T15:43:46.309Z,98384.00
2023-03-16T15:46:13.500Z,98382.00
2023-03-16T15:48:40.395Z,98385.00
2023-03-16T15:51:26.320Z,98380.00
2023-03-16T15:53:59.450Z,98380.00
2023-03-16T15:56:30.202Z,98379.00
2023-03-16T15:59:02.447Z,98369.00
2023-03-16T16:01:34.777Z,98368.00
2023-03-16T16:04:01.674Z,98375.00
2023-03-16T16:06:30.292Z,98373.00
2023-03-16T16:08:57.312Z,98379.00
2023-03-16T16:11:26.332Z,98374.00
2023-03-16T16:13:55.759Z,98379.00
2023-03-16T16:16:23.515Z,98369.00
2023-03-16T16:18:50.165Z,98370.00
2023-03-16T16:21:19.366Z,98367.00
2023-03-16T16:23:46.465Z,98366.00
2023-03-16T16:26:54.171Z,98359.00
2023-03-16T16:29:30.067Z,98363.00
2023-03-16T16:31:56.740Z,98365.00
2023-03-16T16:34:24.910Z,98366.00
2023-03-16T16:36:52.425Z,98356.00
2023-03-16T16:39:19.028Z,98363.00
2023-03-16T16:41:45.987Z,98361.00
2023-03-16T16:44:39.046Z,98360.00
2023-03-16T16:47:17.505Z,98350.00
2023-03-16T16:49:43.952Z,98358.00
2023-03-16T16:52:16.803Z,98360.00
2023-03-16T16:54:43.291Z,98360.00
2023-03-16T16:57:18.306Z,98367.00
2023-03-16T16:59:47.889Z,98374.00
2023-03-16T17:02:31.856Z,98361.00
2023-03-16T17:04:58.634Z,98365.00
2023-03-16T17:07:25.749Z,98365.00
2023-03-16T17:09:52.238Z,98367.00
2023-03-16T17:12:22.271Z,98363.00
2023-03-16T17:14:49.560Z,98356.00
2023-03-16T17:17:17.805Z,98352.00
2023-03-16T17:19:49.120Z,98352.00
2023-03-16T17:22:22.814Z,98349.00
2023-03-16T17:24:49.681Z,98343.00
2023-03-16T17:27:20.193Z,98336.00
2023-03-16T17:29:46.864Z,98345.00
2023-03-16T17:32:22.755Z,98339.00
2023-03-16T17:34:50.817Z,98335.00
2023-03-16T17:37:19.722Z,98338.00
2023-03-16T17:39:46.426Z,98338.00
2023-03-16T17:42:17.563Z,98349.00
2023-03-16T17:44:47.186Z,98356.00
2023-03-16T17:47:16.244Z,98346.00
2023-03-16T17:49:44.793Z,98341.00
2023-03-16T17:52:18.232Z,98343.00
2023-03-16T17:54:48.786Z,98341.00
2023-03-16T17:57:22.557Z,98348.00
2023-03-16T17:59:49.094Z,98353.00
2023-03-16T18:02:39.986Z,98343.00
2023-03-16T18:05:15.516Z,98336.00
2023-03-16T18:07:42.214Z,98336.00
2023-03-16T18:10:21.107Z,98328.00
2023-03-16T18:12:52.607Z,98328.00
2023-03-16T18:15:21.636Z,98317.00
2023-03-16T18:17:49.935Z,98323.00
2023-03-16T18:20:28.194Z,98314.00
2023-03-16T18:22:56.121Z,98319.00
2023-03-16T18:25:34.710Z,98325.00
2023-03-16T18:28:01.732Z,98321.00
2023-03-16T18:30:30.012Z,98316.00
2023-03-16T18:32:57.649Z,98311.00
2023-03-16T18:35:25.798Z,98315.00
2023-03-16T18:37:54.858Z,98299.00
2023-03-16T18:40:23.617Z,98302.00
2023-03-16T18:42:51.408Z,98304.00
2023-03-16T18:45:18.014Z,98305.00
2023-03-16T18:47:50.456Z,98314.00
2023-03-16T18:50:23.755Z,98303.00
2023-03-16T18:52:51.551Z,98305.00
2023-03-16T18:55:23.961Z,98308.00
2023-03-16T18:57:52.744Z,98304.00
2023-03-16T19:00:22.263Z,98313.00
2023-03-16T19:02:53.282Z,98315.00
2023-03-16T19:05:26.263Z,98319.00
2023-03-16T19:07:52.921Z,98317.00
2023-03-16T19:10:30.332Z,98319.00
2023-03-16T19:12:56.885Z,98309.00
2023-03-16T19:15:30.595Z,98302.00
2023-03-16T19:17:58.054Z,98302.00
2023-03-16T19:20:28.339Z,98300.00
2023-03-16T19:23:13.710Z,98296.00
2023-03-16T19:25:41.572Z,98297.00
2023-03-16T19:28:14.675Z,98293.00
2023-03-16T19:30:41.453Z,98296.00
2023-03-16T19:33:18.606Z,98304.00
2023-03-16T19:35:55.428Z,98291.00
2023-03-16T19:38:24.067Z,98297.00
2023-03-16T19:41:00.427Z,98295.00
2023-03-16T19:43:28.659Z,98292.00
2023-03-16T19:45:56.445Z,98290.00
2023-03-16T19:48:32.936Z,98285.00
2023-03-16T19:50:59.719Z,98284.00
2023-03-16T19:53:27.290Z,98273.00
2023-03-16T19:55:54.114Z,98275.00
2023-03-16T19:58:40.184Z,98274.00
2023-03-16T20:01:17.658Z,98281.00
2023-03-16T20:03:46.377Z,98273.00
2023-03-16T20:06:21.776Z,98270.00
2023-03-16T20:08:50.531Z,98267.00
2023-03-16T20:11:27.194Z,98265.00
2023-03-16T20:13:54.450Z,98258.00
2023-03-16T20:16:29.030Z,98261.00
2023-03-16T20:18:57.643Z,98269.00
2023-03-16T20:21:24.885Z,98261.00
2023-03-16T20:23:52.758Z,98272.00
2023-03-16T20:26:27.274Z,98255.00
2023-03-16T20:28:53.837Z,98260.00
2023-03-16T20:31:29.655Z,98257.00
2023-03-16T20:33:56.342Z,98251.00
2023-03-16T20:36:23.380Z,98244.00
2023-03-16T20:38:50.249Z,98258.00
2023-03-16T20:41:32.206Z,98248.00
2023-03-16T20:44:00.547Z,98255.00
2023-03-16T20:46:32.267Z,98250.00
2023-03-16T20:49:00.609Z,98246.00
2023-03-16T20:51:28.865Z,98242.00
2023-03-16T20:53:56.896Z,98242.00
2023-03-16T20:56:26.715Z,98237.00
2023-03-16T20:58:55.947Z,98227.00
2023-03-16T21:01:24.493Z,98237.00
2023-03-16T21:03:55.093Z,98234.00
2023-03-16T21:06:28.418Z,98241.00
2023-03-16T21:08:57.279Z,98241.00
2023-03-16T21:11:36.813Z,98228.00
2023-03-16T21:14:05.002Z,98220.00
2023-03-16T21:16:31.727Z,98231.00
2023-03-16T21:18:58.212Z,98217.00
2023-03-16T21:21:24.879Z,98219.00
2023-03-16T21:23:51.485Z,98220.00
2023-03-16T21:26:24.816Z,98228.00
2023-03-16T21:28:56.612Z,98218.00
2023-03-16T21:31:24.388Z,98222.00
2023-03-16T21:33:53.776Z,98215.00
2023-03-16T21:36:23.788Z,98215.00
2023-03-16T21:38:52.304Z,98222.00
2023-03-16T21:41:19.568Z,98214.00
2023-03-16T21:43:47.123Z,98216.00
2023-03-16T21:46:17.681Z,98211.00
2023-03-16T21:48:46.158Z,98215.00
2023-03-16T21:51:20.075Z,98214.00
2023-03-16T21:53:48.755Z,98199.00
2023-03-16T21:56:18.242Z,98192.00
2023-03-16T21:58:46.481Z,98190.00
2023-03-16T22:01:19.867Z,98189.00
2023-03-16T22:03:50.983Z,98184.00
2023-03-16T22:06:18.049Z,98171.00
2023-03-16T22:08:44.730Z,98175.00
2023-03-16T22:11:16.697Z,98169.00
2023-03-16T22:13:43.261Z,98164.00
2023-03-16T22:16:19.075Z,98159.00
2023-03-16T22:18:47.997Z,98162.00
2023-03-16T22:21:32.608Z,98172.00
2023-03-16T22:24:00.094Z,98172.00
2023-03-16T22:26:28.650Z,98170.00
2023-03-16T22:28:56.931Z,98166.00
2023-03-16T22:31:34.232Z,98163.00
2023-03-16T22:34:03.335Z,98160.00
2023-03-16T22:36:31.452Z,98156.00
2023-03-16T22:39:12.203Z,98146.00
2023-03-16T22:41:38.818Z,98140.00
2023-03-16T22:44:05.642Z,98144.00
2023-03-16T22:46:32.184Z,98147.00
2023-03-16T22:48:58.794Z,98138.00
2023-03-16T22:51:52.045Z,98139.00
2023-03-16T22:54:23.120Z,98140.00
2023-03-16T22:56:50.045Z,98135.00
2023-03-16T22:59:20.766Z,98134.00
2023-03-16T23:01:49.713Z,98131.00
2023-03-16T23:04:32.269Z,98137.00
2023-03-16T23:06:59.307Z,98140.00
2023-03-16T23:09:26.203Z,98132.00
2023-03-16T23:11:54.562Z,98123.00
2023-03-16T23:14:28.769Z,98124.00
2023-03-16T23:16:55.304Z,98132.00
2023-03-16T23:19:29.577Z,98136.00
2023-03-16T23:22:00.228Z,98146.00
2023-03-16T23:24:26.762Z,98143.00
2023-03-16T23:26:54.400Z,98149.00
2023-03-16T23:29:22.420Z,98139.00
2023-03-16T23:31:49.209Z,98141.00
2023-03-16T23:34:18.738Z,98132.00
2023-03-16T23:36:45.802Z,98128.00
2023-03-16T23:39:12.510Z,98120.00
2023-03-16T23:41:42.020Z,98121.00
2023-03-16T23:44:11.468Z,98128.00
2023-03-16T23:46:37.973Z,98119.00
2023-03-16T23:49:05.603Z,98126.00
2023-03-16T23:51:36.975Z,98117.00
2023-03-16T23:54:27.541Z,98120.00
2023-03-16T23:56:54.295Z,98109.00
2023-03-16T23:59:21.402Z,98104.00
